createdAt,value
2022-11-10T00:00:07.834Z,22.80
2022-11-10T00:12:25.124Z,22.52
2022-11-10T00:18:28.251Z,21.80
2022-11-10T00:24:36.628Z,24.23
2022-11-10T00:56:13.891Z,24.13
2022-11-10T01:02:34.715Z,23.08
2022-11-10T01:08:50.349Z,26.08
2022-11-10T01:26:18.985Z,18.83
2022-11-10T01:45:29.130Z,14.87
2022-11-10T01:50:50.238Z,17.20
2022-11-10T01:56:12.625Z,18.27
2022-11-10T02:01:36.165Z,15.70
2022-11-10T02:07:00.792Z,16.92
2022-11-10T02:13:14.245Z,20.35
2022-11-10T02:20:04.060Z,16.85
2022-11-10T02:32:01.501Z,15.70
2022-11-10T02:37:22.310Z,18.02
2022-11-10T02:43:04.764Z,18.52
2022-11-10T02:54:30.352Z,16.05
2022-11-10T03:07:35.478Z,14.15
2022-11-10T03:13:04.180Z,15.30
2022-11-10T03:18:34.838Z,14.43
2022-11-10T03:31:01.218Z,12.20
2022-11-10T03:43:21.663Z,10.27
2022-11-10T03:48:53.687Z,11.68
2022-11-10T03:54:22.891Z,13.18
2022-11-10T04:00:06.216Z,12.52
2022-11-10T04:37:23.927Z,10.60
2022-11-10T04:49:25.948Z,10.98
2022-11-10T05:22:53.560Z,9.63
2022-11-10T05:42:06.503Z,14.93
2022-11-10T06:13:27.614Z,12.57
2022-11-10T06:30:53.104Z,13.35
2022-11-10T06:36:36.680Z,10.35
2022-11-10T06:42:34.149Z,8.50
2022-11-10T06:48:04.768Z,6.30
2022-11-10T06:53:37.335Z,10.20
2022-11-10T06:58:59.814Z,9.68
2022-11-10T07:04:20.980Z,7.32
2022-11-10T07:09:42.746Z,9.35
2022-11-10T07:15:03.938Z,7.95
2022-11-10T07:20:30.121Z,7.65
2022-11-10T07:25:50.920Z,10.05
2022-11-10T07:31:12.241Z,8.18
2022-11-10T07:36:33.626Z,5.68
2022-11-10T07:41:54.888Z,7.55
2022-11-10T07:47:17.066Z,5.55
2022-11-10T07:52:38.071Z,4.68
2022-11-10T07:58:09.911Z,6.13
2022-11-10T08:03:33.599Z,6.80
2022-11-10T08:09:17.221Z,13.25
2022-11-10T08:15:06.723Z,18.00
2022-11-10T08:20:33.584Z,19.27
2022-11-10T08:25:58.588Z,9.05
2022-11-10T08:31:22.803Z,5.93
2022-11-10T08:36:46.067Z,7.68
2022-11-10T08:42:07.364Z,7.15
2022-11-10T08:47:50.648Z,4.28
2022-11-10T08:53:16.975Z,6.47
2022-11-10T08:58:53.339Z,6.47
2022-11-10T09:04:17.393Z,6.03
2022-11-10T09:09:44.564Z,5.05
2022-11-10T09:15:13.838Z,3.60
2022-11-10T09:20:37.525Z,6.72
2022-11-10T09:26:17.833Z,7.18
2022-11-10T09:31:47.912Z,7.00
2022-11-10T09:38:10.637Z,8.38
2022-11-10T09:43:35.877Z,7.28
2022-11-10T09:49:49.187Z,7.60
2022-11-10T09:56:12.856Z,7.88
2022-11-10T10:02:04.246Z,7.53
2022-11-10T10:07:41.428Z,5.50
2022-11-10T10:13:50.736Z,5.72
2022-11-10T10:19:23.385Z,10.05
2022-11-10T10:25:13.397Z,6.43
2022-11-10T10:30:35.238Z,7.78
2022-11-10T10:36:30.688Z,5.93
2022-11-10T10:42:05.389Z,7.47
2022-11-10T10:53:47.282Z,5.18
2022-11-10T10:59:23.711Z,5.20
2022-11-10T11:11:14.128Z,7.57
2022-11-10T11:17:12.485Z,5.50
2022-11-10T11:22:58.568Z,8.10
2022-11-10T11:29:08.570Z,3.65
2022-11-10T11:34:57.040Z,8.10
2022-11-10T11:40:44.428Z,3.60
2022-11-10T11:46:28.188Z,5.95
2022-11-10T11:52:13.531Z,6.50
2022-11-10T11:57:40.947Z,4.30
2022-11-10T12:03:30.581Z,3.58
2022-11-10T12:08:59.997Z,6.32
2022-11-10T12:14:42.934Z,7.45
2022-11-10T12:20:22.680Z,8.07
2022-11-10T12:25:59.771Z,3.58
2022-11-10T12:31:23.508Z,7.85
2022-11-10T12:36:44.907Z,7.18
2022-11-10T12:42:11.265Z,8.68
2022-11-10T12:47:39.618Z,4.97
2022-11-10T12:53:19.701Z,6.18
2022-11-10T12:58:41.537Z,4.45
2022-11-10T13:04:05.212Z,5.90
2022-11-10T13:14:51.390Z,5.60
2022-11-10T13:20:54.410Z,4.20
2022-11-10T13:26:40.203Z,6.70
2022-11-10T13:32:16.909Z,9.82
2022-11-10T13:37:39.119Z,4.30
2022-11-10T13:43:00.272Z,10.95
2022-11-10T13:48:33.520Z,4.90
2022-11-10T13:54:13.223Z,5.82
2022-11-10T13:59:45.542Z,6.18
2022-11-10T14:05:09.179Z,9.40
2022-11-10T14:10:43.042Z,18.70
2022-11-10T14:16:05.347Z,17.15
2022-11-10T14:21:31.226Z,15.68
2022-11-10T14:26:54.078Z,22.95
2022-11-10T14:32:19.549Z,20.67
2022-11-10T14:37:43.475Z,12.73
2022-11-10T14:43:05.152Z,13.43
2022-11-10T14:48:28.658Z,20.23
2022-11-10T14:53:51.913Z,17.85
2022-11-10T14:59:13.943Z,21.25
2022-11-10T15:04:36.797Z,23.73
2022-11-10T15:10:05.531Z,25.58
2022-11-10T15:15:26.882Z,19.98
2022-11-10T15:20:59.122Z,16.48
2022-11-10T15:26:22.407Z,17.98
2022-11-10T15:31:43.714Z,27.45
2022-11-10T15:37:30.491Z,24.52
2022-11-10T15:43:27.907Z,20.42
2022-11-10T15:48:50.952Z,25.73
2022-11-10T15:54:12.347Z,27.77
2022-11-10T15:59:33.540Z,23.27
2022-11-10T16:04:59.509Z,20.15
2022-11-10T16:10:21.185Z,22.20
2022-11-10T16:15:43.025Z,22.90
2022-11-10T16:21:04.392Z,27.42
2022-11-10T16:26:26.053Z,19.15
2022-11-10T16:31:50.482Z,28.55
2022-11-10T16:37:12.759Z,72.03
2022-11-10T16:42:33.785Z,57.95
2022-11-10T16:47:54.953Z,53.53
2022-11-10T16:53:22.860Z,44.85
2022-11-10T16:58:44.127Z,45.50
2022-11-10T17:04:08.093Z,36.30
2022-11-10T17:09:30.896Z,31.58
2022-11-10T17:14:52.058Z,26.50
2022-11-10T17:20:26.316Z,18.45
2022-11-10T17:25:47.621Z,19.65
2022-11-10T17:31:08.700Z,16.88
2022-11-10T17:36:30.742Z,21.98
2022-11-10T17:41:52.435Z,25.17
2022-11-10T17:47:13.418Z,35.40
2022-11-10T17:52:34.867Z,35.53
2022-11-10T17:57:57.920Z,36.17
2022-11-10T18:03:21.744Z,26.73
2022-11-10T18:08:43.388Z,20.95
2022-11-10T18:14:04.411Z,27.60
2022-11-10T18:19:26.324Z,28.40
2022-11-10T18:24:47.756Z,24.00
2022-11-10T18:30:09.141Z,27.77
2022-11-10T18:35:30.187Z,29.17
2022-11-10T18:40:51.266Z,26.00
2022-11-10T18:46:12.320Z,38.83
2022-11-10T18:51:33.847Z,45.05
2022-11-10T18:56:54.845Z,53.35
2022-11-10T19:02:15.708Z,44.15
2022-11-10T19:07:36.517Z,82.78
2022-11-10T19:12:59.740Z,67.55
2022-11-10T19:18:21.371Z,31.67
2022-11-10T19:23:43.532Z,40.38
2022-11-10T19:29:04.667Z,34.80
2022-11-10T19:34:25.808Z,34.10
2022-11-10T19:39:46.921Z,24.45
2022-11-10T19:45:08.562Z,18.05
2022-11-10T19:50:32.566Z,23.55
2022-11-10T19:55:53.987Z,27.23
2022-11-10T20:01:17.001Z,15.65
2022-11-10T20:06:38.392Z,31.90
2022-11-10T20:11:59.511Z,22.20
2022-11-10T20:17:20.342Z,18.00
2022-11-10T20:22:41.555Z,25.50
2022-11-10T20:28:06.123Z,32.03
2022-11-10T20:33:27.810Z,47.15
2022-11-10T20:38:49.495Z,62.25
2022-11-10T20:44:10.529Z,36.33
2022-11-10T20:49:31.671Z,28.00
2022-11-10T20:55:07.119Z,26.63
2022-11-10T21:00:27.930Z,27.33
2022-11-10T21:05:55.621Z,24.33
2022-11-10T21:11:36.685Z,26.38
2022-11-10T21:17:00.904Z,21.58
2022-11-10T21:22:32.463Z,36.92
2022-11-10T21:28:02.746Z,34.08
2022-11-10T21:33:24.487Z,27.05
2022-11-10T21:38:46.561Z,28.85
2022-11-10T21:44:07.697Z,19.50
2022-11-10T21:49:28.830Z,12.85
2022-11-10T21:54:50.227Z,15.35
2022-11-10T22:00:12.978Z,13.18
2022-11-10T22:05:34.075Z,10.93
2022-11-10T22:11:13.501Z,12.75
2022-11-10T22:17:04.625Z,18.40
2022-11-10T22:22:25.726Z,22.80
2022-11-10T22:27:46.897Z,24.05
2022-11-10T22:33:27.963Z,21.23
2022-11-10T22:38:49.863Z,31.67
2022-11-10T22:44:12.296Z,23.17
2022-11-10T22:49:33.018Z,14.85
2022-11-10T22:54:54.435Z,15.15
2022-11-10T23:00:16.257Z,12.88
2022-11-10T23:05:37.580Z,10.20
2022-11-10T23:10:59.949Z,9.55
2022-11-10T23:16:25.997Z,10.68
2022-11-10T23:21:47.004Z,10.57
2022-11-10T23:27:08.163Z,11.25
2022-11-10T23:32:29.023Z,10.98
2022-11-10T23:37:50.174Z,7.43
2022-11-10T23:43:11.474Z,8.75
2022-11-10T23:48:32.899Z,10.60
2022-11-10T23:53:53.975Z,9.45
2022-11-10T23:59:15.869Z,13.27
